createdAt,value
2019-01-24T00:00:01.600Z,40.73
2019-01-24T00:02:42.234Z,39.57
2019-01-24T00:05:22.707Z,38.87
2019-01-24T00:08:03.667Z,41.97
2019-01-24T00:10:44.347Z,38.53
2019-01-24T00:13:25.170Z,39.83
2019-01-24T00:16:05.884Z,41.57
2019-01-24T00:18:46.290Z,42.30
2019-01-24T00:21:27.181Z,38.73
2019-01-24T00:24:07.685Z,38.30
2019-01-24T00:26:48.370Z,40.03
2019-01-24T00:29:29.025Z,42.23
2019-01-24T00:32:10.070Z,40.87
2019-01-24T00:34:50.786Z,38.90
2019-01-24T00:37:19.243Z,40.23
2019-01-24T00:40:27.713Z,39.10
2019-01-24T00:42:56.157Z,40.47
2019-01-24T00:45:43.931Z,37.90
2019-01-24T00:48:31.702Z,40.10
2019-01-24T00:51:00.166Z,39.20
2019-01-24T00:53:28.576Z,37.27
2019-01-24T00:56:09.739Z,38.13
2019-01-24T00:58:50.657Z,36.50
2019-01-24T01:01:31.113Z,36.17
2019-01-24T01:04:11.958Z,36.60
2019-01-24T01:06:52.624Z,35.30
2019-01-24T01:09:33.262Z,34.57
2019-01-24T01:12:14.013Z,34.50
2019-01-24T01:14:54.614Z,35.53
2019-01-24T01:17:35.482Z,33.70
2019-01-24T01:20:15.705Z,37.10
2019-01-24T01:22:56.586Z,34.57
2019-01-24T01:25:36.993Z,34.50
2019-01-24T01:28:17.950Z,35.27
2019-01-24T01:30:58.571Z,34.43
2019-01-24T01:33:26.993Z,35.50
2019-01-24T01:36:14.770Z,32.47
2019-01-24T01:38:43.210Z,34.97
2019-01-24T01:41:30.986Z,33.53
2019-01-24T01:44:12.151Z,34.03
2019-01-24T01:46:52.761Z,34.07
2019-01-24T01:49:21.273Z,32.97
2019-01-24T01:52:09.079Z,33.03
2019-01-24T01:54:57.221Z,32.97
2019-01-24T01:57:45.067Z,31.70
2019-01-24T02:00:33.198Z,29.00
2019-01-24T02:03:20.944Z,30.30
2019-01-24T02:06:08.752Z,30.33
2019-01-24T02:08:49.823Z,31.93
2019-01-24T02:11:30.538Z,30.23
2019-01-24T02:14:11.555Z,30.57
2019-01-24T02:16:52.253Z,29.37
2019-01-24T02:19:33.229Z,30.03
2019-01-24T02:22:14.202Z,30.10
2019-01-24T02:24:54.872Z,29.33
2019-01-24T02:27:35.774Z,30.60
2019-01-24T02:30:16.552Z,29.87
2019-01-24T02:32:57.444Z,29.97
2019-01-24T02:35:38.107Z,28.63
2019-01-24T02:38:18.682Z,28.00
2019-01-24T02:40:59.618Z,28.90
2019-01-24T02:43:40.475Z,28.17
2019-01-24T02:46:21.476Z,29.00
2019-01-24T02:49:02.401Z,29.47
2019-01-24T02:51:43.385Z,30.10
2019-01-24T02:54:23.983Z,29.33
2019-01-24T02:57:04.822Z,29.53
2019-01-24T02:59:33.290Z,30.07
2019-01-24T03:02:21.072Z,30.30
2019-01-24T03:05:29.566Z,29.00
2019-01-24T03:08:17.677Z,30.57
2019-01-24T03:11:05.462Z,29.83
2019-01-24T03:13:53.231Z,29.40
2019-01-24T03:16:41.006Z,30.67
2019-01-24T03:19:09.433Z,29.53
2019-01-24T03:21:57.213Z,29.37
2019-01-24T03:24:25.645Z,30.77
2019-01-24T03:27:13.707Z,29.23
2019-01-24T03:30:01.488Z,31.83
2019-01-24T03:32:49.258Z,33.70
2019-01-24T03:35:37.040Z,31.57
2019-01-24T03:38:24.819Z,30.43
2019-01-24T03:41:12.592Z,30.93
2019-01-24T03:44:00.704Z,28.33
2019-01-24T03:46:48.461Z,28.67
2019-01-24T03:49:36.575Z,28.80
2019-01-24T03:52:24.333Z,29.53
2019-01-24T03:55:05.055Z,27.67
2019-01-24T04:00:28.231Z,26.40
2019-01-24T04:03:08.897Z,27.17
2019-01-24T04:05:49.594Z,27.33
2019-01-24T04:08:30.516Z,26.40
2019-01-24T04:11:11.957Z,28.27
2019-01-24T04:13:52.827Z,27.03
2019-01-24T04:16:33.277Z,27.87
2019-01-24T04:19:13.953Z,26.73
2019-01-24T04:21:54.776Z,27.40
2019-01-24T04:24:35.523Z,24.80
2019-01-24T04:27:16.174Z,23.73
2019-01-24T04:29:56.908Z,24.93
2019-01-24T04:32:37.494Z,26.10
2019-01-24T04:35:19.922Z,24.37
2019-01-24T04:38:00.930Z,26.17
2019-01-24T04:40:41.584Z,24.27
2019-01-24T04:43:22.525Z,24.17
2019-01-24T04:46:03.612Z,25.67
2019-01-24T04:48:44.411Z,24.37
2019-01-24T04:51:25.334Z,25.10
2019-01-24T04:54:05.810Z,25.93
2019-01-24T04:56:46.578Z,26.47
2019-01-24T04:59:27.371Z,25.33
2019-01-24T05:02:07.851Z,26.47
2019-01-24T05:04:48.388Z,25.47
2019-01-24T05:07:28.997Z,24.57
2019-01-24T05:10:09.694Z,26.87
2019-01-24T05:12:50.776Z,26.00
2019-01-24T05:15:31.722Z,24.83
2019-01-24T05:18:12.635Z,25.80
2019-01-24T05:20:53.081Z,25.57
2019-01-24T05:23:33.952Z,24.70
2019-01-24T05:26:14.896Z,25.43
2019-01-24T05:28:55.706Z,25.17
2019-01-24T05:31:36.500Z,27.03
2019-01-24T05:34:17.107Z,25.00
2019-01-24T05:36:57.974Z,26.33
2019-01-24T05:39:38.380Z,25.57
2019-01-24T05:42:18.844Z,27.13
2019-01-24T05:44:59.837Z,27.53
2019-01-24T05:47:40.473Z,27.33
2019-01-24T05:50:21.327Z,26.87
2019-01-24T05:53:01.959Z,26.80
2019-01-24T05:55:42.344Z,26.03
2019-01-24T05:58:23.244Z,27.07
2019-01-24T06:01:05.824Z,26.43
2019-01-24T06:03:46.108Z,27.60
2019-01-24T06:06:27.065Z,28.23
2019-01-24T06:09:07.703Z,27.87
2019-01-24T06:11:48.159Z,26.70
2019-01-24T06:14:28.573Z,27.50
2019-01-24T06:17:09.308Z,26.90
2019-01-24T06:19:50.124Z,27.23
2019-01-24T06:22:30.860Z,26.00
2019-01-24T06:25:11.610Z,26.70
2019-01-24T06:27:52.600Z,27.70
2019-01-24T06:30:33.625Z,28.50
2019-01-24T06:33:14.439Z,27.43
2019-01-24T06:35:55.221Z,26.97
2019-01-24T06:38:35.997Z,26.97
2019-01-24T06:41:16.656Z,25.97
2019-01-24T06:43:57.432Z,27.00
2019-01-24T06:46:38.297Z,27.53
2019-01-24T06:49:19.077Z,26.07
2019-01-24T06:51:59.837Z,27.30
2019-01-24T06:54:40.524Z,28.03
2019-01-24T06:57:21.044Z,28.67
2019-01-24T07:00:01.960Z,27.63
2019-01-24T07:02:42.708Z,27.17
2019-01-24T07:05:23.472Z,28.87
2019-01-24T07:08:04.227Z,27.33
2019-01-24T07:10:44.873Z,26.57
2019-01-24T07:13:25.802Z,27.43
2019-01-24T07:16:06.584Z,27.37
2019-01-24T07:18:47.441Z,26.67
2019-01-24T07:21:28.448Z,28.37
2019-01-24T07:24:09.268Z,27.23
2019-01-24T07:26:50.103Z,27.77
2019-01-24T07:29:30.712Z,32.80
2019-01-24T07:32:11.253Z,29.07
2019-01-24T07:34:51.840Z,28.10
2019-01-24T07:37:32.480Z,28.33
2019-01-24T07:40:13.258Z,27.43
2019-01-24T07:42:54.468Z,28.87
2019-01-24T07:45:35.113Z,27.13
2019-01-24T07:48:15.980Z,28.43
2019-01-24T07:50:56.820Z,27.93
2019-01-24T07:53:37.599Z,27.80
2019-01-24T07:56:18.516Z,27.37
2019-01-24T07:58:59.115Z,27.07
2019-01-24T08:01:40.061Z,29.10
2019-01-24T08:04:20.844Z,29.00
2019-01-24T08:07:01.721Z,27.60
2019-01-24T08:09:42.632Z,28.43
2019-01-24T08:12:23.356Z,27.97
2019-01-24T08:15:04.100Z,27.53
2019-01-24T08:17:44.849Z,27.00
2019-01-24T08:20:25.367Z,28.47
2019-01-24T08:23:06.240Z,27.57
2019-01-24T08:25:46.953Z,28.00
2019-01-24T08:28:27.715Z,29.40
2019-01-24T08:31:08.345Z,28.10
2019-01-24T08:33:49.176Z,28.13
2019-01-24T08:36:30.044Z,27.73
2019-01-24T08:39:10.418Z,27.50
2019-01-24T08:41:50.820Z,29.83
2019-01-24T08:44:31.163Z,25.37
2019-01-24T08:47:11.800Z,28.07
2019-01-24T08:49:52.659Z,27.30
2019-01-24T08:52:33.522Z,27.07
2019-01-24T08:55:01.931Z,27.03
2019-01-24T08:57:50.046Z,27.37
2019-01-24T09:00:37.800Z,27.43
2019-01-24T09:03:18.078Z,29.30
2019-01-24T09:05:58.677Z,26.53
2019-01-24T09:08:39.265Z,26.30
2019-01-24T09:11:19.865Z,28.17
2019-01-24T09:14:00.495Z,27.73
2019-01-24T09:16:41.650Z,25.80
2019-01-24T09:19:22.573Z,28.90
2019-01-24T09:22:03.441Z,28.00
2019-01-24T09:24:44.232Z,27.90
2019-01-24T09:27:24.906Z,29.70
2019-01-24T09:29:53.311Z,29.57
2019-01-24T09:32:41.091Z,34.90
2019-01-24T09:35:28.831Z,30.97
2019-01-24T09:38:16.592Z,28.37
2019-01-24T09:41:04.381Z,28.27
2019-01-24T09:43:52.136Z,28.17
2019-01-24T09:46:39.895Z,28.80
2019-01-24T09:49:27.648Z,28.43
2019-01-24T09:52:15.415Z,29.90
2019-01-24T09:54:43.884Z,31.10
2019-01-24T09:57:24.865Z,30.50
2019-01-24T10:00:05.635Z,30.17
2019-01-24T10:02:46.411Z,31.07
2019-01-24T10:05:27.190Z,29.13
2019-01-24T10:08:08.195Z,30.20
2019-01-24T10:10:48.745Z,30.07
2019-01-24T10:13:29.437Z,29.90
2019-01-24T10:16:10.401Z,29.10
2019-01-24T10:18:51.363Z,29.60
2019-01-24T10:21:32.243Z,29.80
2019-01-24T10:24:13.033Z,31.20
2019-01-24T10:26:53.856Z,30.77
2019-01-24T10:29:34.475Z,28.87
2019-01-24T10:32:15.482Z,29.03
2019-01-24T10:34:56.001Z,29.20
2019-01-24T10:37:24.724Z,28.90
2019-01-24T10:39:53.125Z,31.10
2019-01-24T10:42:21.642Z,33.03
2019-01-24T10:44:50.051Z,29.67
2019-01-24T10:47:18.460Z,31.70
2019-01-24T10:49:46.892Z,30.60
2019-01-24T10:52:15.314Z,28.33
2019-01-24T10:54:43.812Z,28.80
2019-01-24T10:57:12.216Z,28.23
2019-01-24T10:59:40.651Z,31.43
2019-01-24T11:02:09.699Z,29.67
2019-01-24T11:04:38.148Z,28.83
2019-01-24T11:07:06.616Z,30.17
2019-01-24T11:09:35.111Z,28.73
2019-01-24T11:12:03.800Z,31.10
2019-01-24T11:14:32.179Z,28.07
2019-01-24T11:17:00.612Z,29.90
2019-01-24T11:19:29.111Z,29.27
2019-01-24T11:21:57.532Z,31.07
2019-01-24T11:24:26.088Z,30.37
2019-01-24T11:26:54.563Z,29.57
2019-01-24T11:29:22.989Z,29.67
2019-01-24T11:31:51.439Z,29.70
2019-01-24T11:34:19.877Z,30.77
2019-01-24T11:36:48.316Z,30.50
2019-01-24T11:39:16.715Z,29.90
2019-01-24T11:41:45.147Z,29.60
2019-01-24T11:44:13.576Z,30.43
2019-01-24T11:46:42.260Z,28.23
2019-01-24T11:49:10.668Z,30.07
2019-01-24T11:51:39.091Z,29.03
2019-01-24T11:54:07.572Z,30.07
2019-01-24T11:56:36.353Z,29.10
2019-01-24T11:59:04.904Z,30.10
2019-01-24T12:01:33.340Z,28.27
2019-01-24T12:04:01.777Z,29.37
2019-01-24T12:06:30.176Z,28.47
2019-01-24T12:08:58.748Z,27.70
2019-01-24T12:11:27.157Z,30.00
2019-01-24T12:13:55.600Z,30.47
2019-01-24T12:16:24.009Z,29.40
2019-01-24T12:18:52.440Z,30.07
2019-01-24T12:21:20.872Z,29.77
2019-01-24T12:23:49.321Z,30.70
2019-01-24T12:26:17.724Z,32.13
2019-01-24T12:28:46.304Z,27.87
2019-01-24T12:31:14.703Z,29.10
2019-01-24T12:33:43.148Z,27.87
2019-01-24T12:36:11.547Z,28.63
2019-01-24T12:38:40.006Z,28.75
2019-01-24T12:41:08.420Z,30.20
2019-01-24T12:43:36.848Z,30.87
2019-01-24T12:46:05.455Z,29.97
2019-01-24T12:48:33.884Z,28.43
2019-01-24T12:51:02.295Z,28.30
2019-01-24T12:53:30.720Z,29.47
2019-01-24T12:55:59.123Z,29.20
2019-01-24T12:58:27.880Z,27.03
2019-01-24T13:00:56.311Z,29.17
2019-01-24T13:03:24.723Z,28.40
2019-01-24T13:05:53.202Z,27.17
2019-01-24T13:08:21.648Z,28.40
2019-01-24T13:10:50.068Z,27.17
2019-01-24T13:13:18.493Z,28.90
2019-01-24T13:15:46.996Z,28.17
2019-01-24T13:18:15.412Z,28.17
2019-01-24T13:20:43.851Z,26.03
2019-01-24T13:23:12.513Z,29.83
2019-01-24T13:25:40.937Z,27.73
2019-01-24T13:28:09.365Z,28.57
2019-01-24T13:30:37.767Z,27.20
2019-01-24T13:33:06.398Z,27.70
2019-01-24T13:35:34.815Z,25.33
2019-01-24T13:38:03.394Z,25.67
2019-01-24T13:40:32.103Z,26.03
2019-01-24T13:43:01.064Z,27.83
2019-01-24T13:45:34.213Z,27.90
2019-01-24T13:48:02.732Z,27.57
2019-01-24T13:50:31.382Z,27.43
2019-01-24T13:53:00.031Z,27.47
2019-01-24T13:55:28.531Z,26.87
2019-01-24T13:57:56.942Z,27.70
2019-01-24T14:00:28.026Z,28.83
2019-01-24T14:02:59.857Z,28.20
2019-01-24T14:05:28.276Z,28.97
2019-01-24T14:07:57.532Z,26.30
2019-01-24T14:10:26.057Z,26.77
2019-01-24T14:12:54.749Z,28.20
2019-01-24T14:15:23.545Z,27.70
2019-01-24T14:17:52.027Z,28.70
2019-01-24T14:20:21.579Z,27.40
2019-01-24T14:22:50.139Z,28.10
2019-01-24T14:25:20.022Z,28.67
2019-01-24T14:27:48.591Z,27.70
2019-01-24T14:30:22.717Z,27.77
2019-01-24T14:32:51.236Z,27.80
2019-01-24T14:35:19.817Z,28.65
2019-01-24T14:37:48.779Z,27.33
2019-01-24T14:40:17.372Z,26.07
2019-01-24T14:42:45.817Z,25.47
2019-01-24T14:45:22.860Z,26.70
2019-01-24T14:47:51.334Z,26.80
2019-01-24T14:50:22.353Z,27.00
2019-01-24T14:52:51.215Z,24.67
2019-01-24T14:55:19.803Z,26.40
2019-01-24T14:57:48.480Z,24.50
2019-01-24T15:00:39.268Z,25.80
2019-01-24T15:03:07.704Z,26.57
2019-01-24T15:05:36.171Z,26.60
2019-01-24T15:08:05.836Z,26.60
2019-01-24T15:10:34.240Z,28.77
2019-01-24T15:13:02.908Z,28.80
2019-01-24T15:15:31.304Z,27.23
2019-01-24T15:17:59.740Z,27.93
2019-01-24T15:20:28.157Z,26.77
2019-01-24T15:22:56.580Z,26.03
2019-01-24T15:25:24.980Z,28.97
2019-01-24T15:27:53.412Z,28.20
2019-01-24T15:30:29.132Z,25.67
2019-01-24T15:32:57.636Z,27.10
2019-01-24T15:35:26.122Z,28.47
2019-01-24T15:37:54.965Z,28.43
2019-01-24T15:40:26.371Z,27.33
2019-01-24T15:42:54.935Z,30.03
2019-01-24T15:45:23.520Z,29.70
2019-01-24T15:47:51.928Z,33.77
2019-01-24T15:50:21.993Z,33.80
2019-01-24T15:52:50.542Z,29.33
2019-01-24T15:55:18.979Z,28.90
2019-01-24T15:57:47.520Z,27.10
2019-01-24T16:00:18.931Z,28.33
2019-01-24T16:02:47.423Z,27.77
2019-01-24T16:05:15.879Z,26.47
2019-01-24T16:07:44.287Z,26.47
2019-01-24T16:10:15.496Z,28.53
2019-01-24T16:12:44.042Z,28.67
2019-01-24T16:15:21.063Z,28.20
2019-01-24T16:17:49.499Z,27.23
2019-01-24T16:20:23.251Z,28.47
2019-01-24T16:22:51.682Z,28.37
2019-01-24T16:25:22.325Z,32.40
2019-01-24T16:27:50.752Z,29.63
2019-01-24T16:30:24.600Z,26.77
2019-01-24T16:32:53.096Z,26.40
2019-01-24T16:35:21.771Z,25.53
2019-01-24T16:37:50.180Z,26.50
2019-01-24T16:40:20.943Z,27.50
2019-01-24T16:42:49.376Z,31.70
2019-01-24T16:45:20.293Z,30.07
2019-01-24T16:47:49.365Z,29.27
2019-01-24T16:50:19.604Z,26.73
2019-01-24T16:52:48.055Z,26.87
2019-01-24T16:55:17.679Z,25.87
2019-01-24T16:57:47.450Z,26.97
2019-01-24T17:00:30.547Z,28.13
2019-01-24T17:02:58.971Z,29.77
2019-01-24T17:05:27.569Z,29.20
2019-01-24T17:07:55.980Z,27.93
2019-01-24T17:10:29.352Z,24.87
2019-01-24T17:12:57.848Z,27.00
2019-01-24T17:15:26.520Z,29.50
2019-01-24T17:17:55.187Z,28.30
2019-01-24T17:20:29.102Z,27.23
2019-01-24T17:22:57.528Z,27.57
2019-01-24T17:25:28.401Z,27.37
2019-01-24T17:27:56.828Z,27.13
2019-01-24T17:30:30.485Z,27.53
2019-01-24T17:32:59.169Z,27.90
2019-01-24T17:35:27.752Z,27.90
2019-01-24T17:37:56.281Z,27.33
2019-01-24T17:40:30.483Z,24.67
2019-01-24T17:42:59.008Z,26.90
2019-01-24T17:45:27.790Z,26.50
2019-01-24T17:47:56.325Z,27.63
2019-01-24T17:50:24.760Z,32.10
2019-01-24T17:52:53.237Z,25.73
2019-01-24T17:55:36.154Z,25.27
2019-01-24T17:58:06.317Z,26.42
2019-01-24T18:00:36.464Z,29.23
2019-01-24T18:03:05.420Z,31.30
2019-01-24T18:05:33.827Z,31.40
2019-01-24T18:08:02.251Z,26.87
2019-01-24T18:10:31.296Z,25.40
2019-01-24T18:12:59.733Z,29.43
2019-01-24T18:15:30.873Z,27.20
2019-01-24T18:17:59.404Z,28.00
2019-01-24T18:20:35.350Z,27.67
2019-01-24T18:23:05.013Z,29.73
2019-01-24T18:25:33.580Z,29.73
2019-01-24T18:28:02.029Z,27.90
2019-01-24T18:30:30.719Z,26.83
2019-01-24T18:32:59.119Z,27.53
2019-01-24T18:35:27.863Z,28.30
2019-01-24T18:37:56.275Z,26.77
2019-01-24T18:40:27.304Z,26.57
2019-01-24T18:42:56.283Z,26.80
2019-01-24T18:45:36.760Z,26.10
2019-01-24T18:48:06.101Z,27.40
2019-01-24T18:50:34.567Z,27.87
2019-01-24T18:53:03.153Z,29.13
2019-01-24T18:55:31.595Z,26.67
2019-01-24T18:58:00.032Z,25.87
2019-01-24T19:00:39.419Z,26.33
2019-01-24T19:03:08.580Z,26.30
2019-01-24T19:05:37.183Z,25.83
2019-01-24T19:08:06.028Z,23.83
2019-01-24T19:10:34.516Z,25.07
2019-01-24T19:13:02.935Z,25.27
2019-01-24T19:15:31.538Z,24.30
2019-01-24T19:17:59.968Z,24.50
2019-01-24T19:20:28.388Z,23.83
2019-01-24T19:22:56.815Z,27.23
2019-01-24T19:25:25.338Z,27.20
2019-01-24T19:27:53.757Z,26.30
2019-01-24T19:30:24.901Z,27.03
2019-01-24T19:32:53.976Z,28.73
2019-01-24T19:35:22.393Z,28.47
2019-01-24T19:37:50.827Z,25.37
2019-01-24T19:40:30.191Z,26.17
2019-01-24T19:42:58.754Z,25.30
2019-01-24T19:45:27.901Z,24.80
2019-01-24T19:47:56.399Z,24.87
2019-01-24T19:50:26.846Z,26.27
2019-01-24T19:52:55.364Z,24.87
2019-01-24T19:55:23.810Z,24.73
2019-01-24T19:57:52.799Z,24.83
2019-01-24T20:00:23.695Z,24.90
2019-01-24T20:02:52.355Z,24.37
2019-01-24T20:05:21.342Z,25.00
2019-01-24T20:07:49.902Z,24.60
2019-01-24T20:10:23.623Z,26.57
2019-01-24T20:12:52.144Z,24.43
2019-01-24T20:15:22.412Z,25.80
2019-01-24T20:17:50.900Z,23.70
2019-01-24T20:20:19.458Z,25.30
2019-01-24T20:22:48.412Z,24.77
2019-01-24T20:25:22.673Z,25.13
2019-01-24T20:27:51.176Z,23.80
2019-01-24T20:30:24.607Z,23.83
2019-01-24T20:32:53.103Z,23.57
2019-01-24T20:35:30.275Z,24.07
2019-01-24T20:37:58.676Z,23.47
2019-01-24T20:40:27.336Z,24.50
2019-01-24T20:42:55.831Z,23.30
2019-01-24T20:45:24.266Z,22.57
2019-01-24T20:47:52.776Z,23.63
2019-01-24T20:50:21.252Z,22.33
2019-01-24T20:52:49.827Z,23.77
2019-01-24T20:55:18.309Z,24.40
2019-01-24T20:57:46.792Z,25.70
2019-01-24T21:00:18.322Z,24.23
2019-01-24T21:02:47.008Z,23.20
2019-01-24T21:05:23.079Z,23.53
2019-01-24T21:07:51.604Z,24.60
2019-01-24T21:10:27.645Z,24.00
2019-01-24T21:12:56.097Z,23.73
2019-01-24T21:15:24.495Z,24.17
2019-01-24T21:17:52.906Z,24.77
2019-01-24T21:20:31.969Z,23.07
2019-01-24T21:23:00.379Z,24.53
2019-01-24T21:25:28.964Z,24.23
2019-01-24T21:27:57.392Z,23.30
2019-01-24T21:30:31.671Z,22.53
2019-01-24T21:33:00.176Z,23.13
2019-01-24T21:35:28.760Z,24.17
2019-01-24T21:37:57.196Z,24.33
2019-01-24T21:40:25.771Z,23.57
2019-01-24T21:42:54.180Z,23.63
2019-01-24T21:45:27.957Z,23.47
2019-01-24T21:47:56.360Z,24.90
2019-01-24T21:50:27.413Z,24.47
2019-01-24T21:52:55.807Z,23.15
2019-01-24T21:55:24.370Z,23.00
2019-01-24T21:57:52.790Z,24.03
2019-01-24T22:00:30.272Z,23.83
2019-01-24T22:02:58.681Z,22.87
2019-01-24T22:05:27.370Z,23.13
2019-01-24T22:07:55.858Z,22.73
2019-01-24T22:10:29.375Z,23.47
2019-01-24T22:12:58.075Z,24.37
2019-01-24T22:15:28.523Z,23.17
2019-01-24T22:17:57.211Z,23.63
2019-01-24T22:20:25.683Z,22.60
2019-01-24T22:22:54.204Z,23.33
2019-01-24T22:25:27.712Z,23.47
2019-01-24T22:27:56.143Z,23.33
2019-01-24T22:30:29.124Z,23.67
2019-01-24T22:32:57.796Z,24.83
2019-01-24T22:35:26.229Z,23.83
2019-01-24T22:37:54.658Z,24.27
2019-01-24T22:40:23.147Z,23.63
2019-01-24T22:42:51.559Z,24.37
2019-01-24T22:45:24.795Z,22.83
2019-01-24T22:47:53.427Z,25.27
2019-01-24T22:50:22.032Z,24.03
2019-01-24T22:52:50.462Z,25.00
2019-01-24T22:55:19.043Z,24.67
2019-01-24T22:57:47.448Z,25.77
2019-01-24T23:00:46.477Z,24.50
2019-01-24T23:03:25.904Z,22.67
2019-01-24T23:05:54.327Z,22.97
2019-01-24T23:08:22.759Z,23.77
2019-01-24T23:10:51.193Z,23.90
2019-01-24T23:13:19.623Z,23.85
2019-01-24T23:15:48.051Z,23.30
2019-01-24T23:18:16.748Z,24.40
2019-01-24T23:20:45.179Z,24.83
2019-01-24T23:23:13.586Z,23.90
2019-01-24T23:25:42.013Z,24.90
2019-01-24T23:28:11.224Z,23.97
2019-01-24T23:30:39.650Z,25.77
2019-01-24T23:33:08.060Z,23.53
2019-01-24T23:35:36.507Z,25.23
2019-01-24T23:38:05.416Z,24.80
2019-01-24T23:40:33.851Z,24.23
2019-01-24T23:43:02.266Z,24.37
2019-01-24T23:45:30.696Z,24.00
2019-01-24T23:47:59.188Z,22.43
2019-01-24T23:50:27.620Z,25.10
2019-01-24T23:52:56.026Z,24.47
2019-01-24T23:55:24.465Z,23.60
2019-01-24T23:57:52.891Z,26.20
